createdAt,value
2018-05-03T00:01:00.212Z,15.65
2018-05-03T00:03:27.619Z,15.72
2018-05-03T00:05:55.037Z,15.58
2018-05-03T00:08:22.415Z,15.64
2018-05-03T00:10:49.971Z,15.58
2018-05-03T00:13:17.558Z,15.51
2018-05-03T00:15:44.955Z,15.51
2018-05-03T00:18:12.380Z,15.55
2018-05-03T00:20:39.770Z,15.55
2018-05-03T00:23:07.145Z,15.54
2018-05-03T00:25:34.551Z,15.17
2018-05-03T00:28:02.007Z,15.16
2018-05-03T00:30:29.395Z,15.36
2018-05-03T00:32:56.774Z,15.17
2018-05-03T00:35:24.212Z,15.11
2018-05-03T00:37:51.583Z,15.22
2018-05-03T00:40:18.969Z,15.27
2018-05-03T00:42:46.347Z,15.31
2018-05-03T00:45:14.161Z,15.19
2018-05-03T00:47:41.519Z,15.24
2018-05-03T00:50:08.930Z,15.18
2018-05-03T00:52:36.319Z,15.11
2018-05-03T00:55:03.734Z,14.98
2018-05-03T00:57:31.103Z,15.05
2018-05-03T00:59:58.552Z,15.17
2018-05-03T01:02:25.935Z,15.00
2018-05-03T01:04:53.386Z,14.75
2018-05-03T01:07:20.995Z,14.96
2018-05-03T01:09:48.390Z,14.79
2018-05-03T01:12:15.768Z,14.87
2018-05-03T01:14:43.142Z,14.76
2018-05-03T01:17:10.579Z,14.72
2018-05-03T01:19:38.008Z,14.74
2018-05-03T01:22:05.408Z,14.69
2018-05-03T01:24:32.770Z,14.59
2018-05-03T01:27:00.215Z,14.76
2018-05-03T01:29:27.607Z,14.82
2018-05-03T01:31:55.134Z,14.77
2018-05-03T01:34:22.509Z,14.97
2018-05-03T01:36:50.038Z,14.84
2018-05-03T01:39:17.451Z,14.87
2018-05-03T01:41:44.837Z,14.88
2018-05-03T01:44:12.219Z,15.00
2018-05-03T01:46:39.606Z,14.91
2018-05-03T01:49:06.989Z,14.94
2018-05-03T01:51:34.376Z,14.91
2018-05-03T01:54:01.746Z,14.84
2018-05-03T01:56:30.418Z,14.86
2018-05-03T01:58:57.794Z,14.71
2018-05-03T02:01:25.186Z,14.80
2018-05-03T02:03:52.548Z,14.67
2018-05-03T02:06:19.953Z,14.77
2018-05-03T02:08:47.334Z,14.79
2018-05-03T02:11:14.701Z,14.67
2018-05-03T02:13:42.088Z,14.58
2018-05-03T02:16:09.473Z,14.70
2018-05-03T02:18:36.859Z,14.69
2018-05-03T02:21:04.301Z,14.77
2018-05-03T02:23:31.662Z,14.85
2018-05-03T02:25:59.050Z,14.64
2018-05-03T02:28:26.455Z,14.85
2018-05-03T02:30:53.819Z,14.85
2018-05-03T02:33:21.474Z,14.84
2018-05-03T02:35:48.866Z,14.78
2018-05-03T02:38:16.309Z,14.82
2018-05-03T02:40:43.683Z,14.82
2018-05-03T02:43:11.078Z,14.76
2018-05-03T02:45:38.580Z,14.79
2018-05-03T02:48:05.945Z,14.88
2018-05-03T02:50:33.488Z,14.86
2018-05-03T02:53:00.874Z,14.86
2018-05-03T02:55:28.259Z,14.89
2018-05-03T02:58:13.456Z,14.86
2018-05-03T03:00:58.302Z,14.91
2018-05-03T03:03:43.416Z,14.43
2018-05-03T03:06:28.248Z,14.44
2018-05-03T03:12:33.560Z,14.47
2018-05-03T03:15:18.365Z,14.49
2018-05-03T03:18:03.180Z,14.67
2018-05-03T03:20:56.723Z,14.34
2018-05-03T03:29:46.255Z,14.44
2018-05-03T03:32:25.287Z,14.59
2018-05-03T03:38:20.907Z,14.79
2018-05-03T03:41:00.228Z,14.38
2018-05-03T03:43:39.214Z,14.33
2018-05-03T03:46:06.640Z,14.13
2018-05-03T03:48:34.128Z,14.01
2018-05-03T03:51:01.944Z,14.18
2018-05-03T03:53:29.395Z,14.01
2018-05-03T03:55:56.777Z,14.18
2018-05-03T03:58:24.187Z,14.06
2018-05-03T04:23:08.088Z,14.16
2018-05-03T04:25:47.320Z,14.26
2018-05-03T04:28:16.236Z,14.08
2018-05-03T04:30:43.710Z,14.38
2018-05-03T04:33:11.268Z,14.42
2018-05-03T04:35:39.358Z,14.24
2018-05-03T04:59:01.533Z,14.28
2018-05-03T05:01:28.934Z,14.43
2018-05-03T05:03:56.312Z,14.49
2018-05-03T05:06:23.713Z,14.27
2018-05-03T05:08:51.111Z,14.44
2018-05-03T05:11:18.492Z,14.51
2018-05-03T05:18:55.115Z,14.65
2018-05-03T05:21:22.524Z,14.73
2018-05-03T05:23:49.952Z,14.86
2018-05-03T05:26:17.335Z,14.68
2018-05-03T05:28:44.746Z,14.63
2018-05-03T05:31:12.260Z,14.82
2018-05-03T05:33:39.647Z,14.99
2018-05-03T05:36:07.046Z,15.00
2018-05-03T05:38:35.361Z,15.07
2018-05-03T05:41:04.001Z,14.87
2018-05-03T05:43:32.826Z,14.90
2018-05-03T05:58:50.537Z,14.83
2018-05-03T06:01:17.942Z,14.97
2018-05-03T06:03:45.420Z,15.01
2018-05-03T06:19:04.339Z,15.37
2018-05-03T06:21:31.732Z,15.20
2018-05-03T06:23:59.149Z,15.23
2018-05-03T06:26:27.506Z,15.29
2018-05-03T06:28:54.879Z,15.18
2018-05-03T06:31:22.355Z,15.28
2018-05-03T06:33:49.648Z,15.33
2018-05-03T06:36:17.039Z,15.37
2018-05-03T06:38:44.488Z,15.42
2018-05-03T06:48:47.415Z,15.14
2018-05-03T06:51:14.808Z,15.15
2018-05-03T06:53:42.211Z,15.31
2018-05-03T06:56:09.644Z,15.42
2018-05-03T06:58:37.047Z,15.43
2018-05-03T07:01:04.422Z,15.43
2018-05-03T07:03:31.817Z,15.41
2018-05-03T07:05:59.203Z,15.46
2018-05-03T07:08:26.598Z,15.46
2018-05-03T07:10:53.999Z,15.43
2018-05-03T07:13:21.387Z,15.43
2018-05-03T07:15:48.784Z,15.31
2018-05-03T07:18:16.174Z,15.36
2018-05-03T07:20:47.460Z,15.25
2018-05-03T07:23:18.220Z,15.40
2018-05-03T07:25:45.709Z,15.50
2018-05-03T07:28:13.140Z,15.66
2018-05-03T07:30:40.577Z,15.69
2018-05-03T07:33:08.698Z,15.81
2018-05-03T07:35:36.116Z,15.77
2018-05-03T07:38:03.507Z,15.63
2018-05-03T07:40:30.928Z,15.50
2018-05-03T07:42:58.367Z,15.72
2018-05-03T07:45:25.789Z,15.76
2018-05-03T07:47:53.204Z,15.70
2018-05-03T07:50:20.597Z,15.88
2018-05-03T07:52:47.984Z,16.16
2018-05-03T07:55:15.398Z,16.32
2018-05-03T07:57:42.802Z,16.39
2018-05-03T08:00:10.209Z,16.18
2018-05-03T08:02:37.682Z,16.39
2018-05-03T08:05:05.101Z,16.12
2018-05-03T08:07:33.194Z,16.29
2018-05-03T08:10:00.614Z,16.42
2018-05-03T08:12:28.104Z,16.36
2018-05-03T08:14:55.550Z,16.63
2018-05-03T08:17:22.994Z,16.82
2018-05-03T08:19:50.366Z,16.86
2018-05-03T08:22:17.750Z,16.62
2018-05-03T08:24:45.158Z,16.57
2018-05-03T08:27:12.602Z,16.92
2018-05-03T08:29:39.987Z,17.01
2018-05-03T08:32:07.387Z,17.00
2018-05-03T08:34:34.792Z,17.08
2018-05-03T08:37:02.179Z,17.20
2018-05-03T08:39:29.579Z,17.31
2018-05-03T08:41:57.108Z,17.42
2018-05-03T08:44:24.497Z,17.39
2018-05-03T08:46:51.890Z,17.19
2018-05-03T08:49:19.340Z,17.27
2018-05-03T08:51:46.753Z,17.28
2018-05-03T08:54:14.131Z,17.39
2018-05-03T08:56:41.513Z,17.48
2018-05-03T08:59:08.975Z,17.63
2018-05-03T09:01:36.616Z,17.67
2018-05-03T09:04:04.008Z,17.58
2018-05-03T09:06:31.395Z,17.82
2018-05-03T09:08:58.843Z,17.95
2018-05-03T09:11:26.225Z,17.95
2018-05-03T09:13:53.658Z,18.04
2018-05-03T09:16:21.061Z,18.21
2018-05-03T09:18:48.431Z,18.11
2018-05-03T09:21:15.834Z,18.05
2018-05-03T09:23:43.226Z,18.02
2018-05-03T09:26:16.643Z,18.02
2018-05-03T09:28:49.290Z,18.04
2018-05-03T09:31:24.832Z,18.22
2018-05-03T09:33:55.921Z,18.37
2018-05-03T09:36:23.489Z,18.38
2018-05-03T09:38:50.882Z,18.41
2018-05-03T09:41:18.568Z,18.48
2018-05-03T09:43:45.952Z,18.55
2018-05-03T09:46:13.350Z,18.51
2018-05-03T09:48:40.730Z,18.64
2018-05-03T09:51:08.132Z,18.87
2018-05-03T09:53:35.519Z,18.92
2018-05-03T09:56:02.911Z,19.06
2018-05-03T09:58:30.307Z,19.37
2018-05-03T10:00:57.788Z,19.50
2018-05-03T10:03:25.187Z,19.85
2018-05-03T10:05:52.614Z,19.93
2018-05-03T10:08:19.992Z,19.86
2018-05-03T10:10:47.444Z,19.92
2018-05-03T10:13:14.852Z,19.90
2018-05-03T10:15:42.255Z,19.46
2018-05-03T10:18:09.632Z,19.23
2018-05-03T10:20:37.031Z,19.66
2018-05-03T10:23:04.416Z,20.14
2018-05-03T10:25:31.820Z,20.29
2018-05-03T10:27:59.227Z,20.39
2018-05-03T10:30:26.616Z,20.32
2018-05-03T10:32:54.007Z,20.59
2018-05-03T10:35:21.404Z,20.42
2018-05-03T10:37:48.807Z,20.91
2018-05-03T10:40:16.174Z,20.97
2018-05-03T10:42:43.580Z,20.88
2018-05-03T10:45:10.948Z,21.10
2018-05-03T10:47:38.339Z,21.26
2018-05-03T10:50:05.752Z,21.08
2018-05-03T10:52:33.127Z,20.83
2018-05-03T10:55:00.521Z,20.47
2018-05-03T10:57:27.944Z,20.04
2018-05-03T10:59:55.291Z,20.69
2018-05-03T11:02:22.693Z,20.50
2018-05-03T11:04:50.115Z,20.23
2018-05-03T11:07:17.518Z,20.27
2018-05-03T11:09:45.021Z,20.51
2018-05-03T11:12:12.432Z,20.32
2018-05-03T11:14:39.831Z,20.85
2018-05-03T11:17:07.263Z,21.45
2018-05-03T11:19:34.637Z,21.67
2018-05-03T11:22:02.008Z,21.83
2018-05-03T11:24:29.420Z,21.68
2018-05-03T11:26:56.979Z,22.08
2018-05-03T11:29:24.451Z,22.22
2018-05-03T11:31:51.836Z,22.53
2018-05-03T11:34:19.273Z,22.39
2018-05-03T11:36:46.719Z,22.93
2018-05-03T11:39:14.105Z,23.11
2018-05-03T11:41:41.507Z,23.28
2018-05-03T11:44:08.887Z,23.55
2018-05-03T11:46:36.298Z,23.28
2018-05-03T11:49:03.782Z,23.63
2018-05-03T11:51:31.191Z,24.10
2018-05-03T11:53:58.572Z,24.12
2018-05-03T11:56:25.989Z,23.77
2018-05-03T11:58:53.762Z,24.30
2018-05-03T12:01:21.439Z,24.74
2018-05-03T12:03:49.079Z,25.08
2018-05-03T12:06:16.972Z,24.77
2018-05-03T12:08:44.367Z,25.64
2018-05-03T12:11:11.751Z,25.03
2018-05-03T12:13:39.529Z,25.45
2018-05-03T12:16:08.026Z,26.72
2018-05-03T12:18:35.695Z,27.14
2018-05-03T12:21:04.145Z,27.76
2018-05-03T12:23:31.693Z,28.21
2018-05-03T12:25:59.151Z,27.20
2018-05-03T12:28:26.712Z,27.87
2018-05-03T12:30:54.132Z,27.34
2018-05-03T12:33:21.624Z,29.02
2018-05-03T12:35:49.037Z,29.50
2018-05-03T12:38:16.633Z,29.48
2018-05-03T12:40:44.016Z,28.22
2018-05-03T12:43:11.448Z,29.32
2018-05-03T12:45:39.109Z,30.36
2018-05-03T12:48:06.608Z,29.30
2018-05-03T12:50:34.017Z,27.80
2018-05-03T12:53:01.434Z,26.37
2018-05-03T12:55:28.808Z,28.14
2018-05-03T12:57:56.205Z,29.52
2018-05-03T13:00:23.619Z,30.98
2018-05-03T13:02:51.023Z,31.22
2018-05-03T13:05:18.457Z,30.15
2018-05-03T13:07:46.020Z,27.59
2018-05-03T13:10:13.345Z,28.51
2018-05-03T13:12:41.750Z,30.23
2018-05-03T13:15:09.269Z,31.21
2018-05-03T13:17:36.660Z,29.78
2018-05-03T13:20:04.090Z,28.74
2018-05-03T13:22:31.594Z,28.39
2018-05-03T13:24:59.067Z,29.45
2018-05-03T13:27:26.482Z,30.46
2018-05-03T13:29:53.884Z,30.17
2018-05-03T13:32:21.285Z,30.64
2018-05-03T13:34:48.679Z,29.41
2018-05-03T13:37:16.070Z,29.30
2018-05-03T13:39:43.474Z,28.77
2018-05-03T13:42:10.935Z,29.47
2018-05-03T13:44:38.542Z,31.37
2018-05-03T13:47:05.992Z,32.53
2018-05-03T13:49:33.403Z,32.95
2018-05-03T13:52:01.590Z,31.39
2018-05-03T13:54:28.980Z,29.44
2018-05-03T13:56:56.471Z,30.44
2018-05-03T13:59:23.841Z,31.37
2018-05-03T14:01:51.221Z,32.62
2018-05-03T14:04:18.724Z,33.33
2018-05-03T14:06:46.143Z,32.69
2018-05-03T14:09:13.609Z,33.83
2018-05-03T14:11:41.047Z,34.23
2018-05-03T14:14:08.468Z,32.56
2018-05-03T14:16:35.895Z,30.68
2018-05-03T14:19:03.292Z,31.09
2018-05-03T14:21:30.775Z,32.94
2018-05-03T14:23:58.151Z,33.35
2018-05-03T14:26:25.562Z,33.30
2018-05-03T14:28:52.956Z,34.09
2018-05-03T14:31:20.829Z,34.29
2018-05-03T14:33:48.605Z,33.59
2018-05-03T14:36:16.017Z,34.09
2018-05-03T14:38:43.515Z,33.75
2018-05-03T14:41:10.955Z,31.77
2018-05-03T14:43:39.903Z,30.45
2018-05-03T14:46:07.355Z,30.47
2018-05-03T14:48:34.772Z,29.34
2018-05-03T14:51:02.176Z,28.71
2018-05-03T14:53:29.562Z,29.52
2018-05-03T14:55:56.946Z,30.95
2018-05-03T14:58:25.378Z,31.91
2018-05-03T15:00:52.871Z,31.06
2018-05-03T15:03:20.251Z,29.32
2018-05-03T15:05:47.635Z,28.67
2018-05-03T15:08:15.135Z,30.33
2018-05-03T15:10:42.552Z,31.42
2018-05-03T15:13:09.938Z,31.41
2018-05-03T15:15:37.315Z,31.42
2018-05-03T15:18:04.962Z,32.30
2018-05-03T15:20:32.334Z,31.23
2018-05-03T15:22:59.720Z,30.28
2018-05-03T15:25:27.627Z,29.38
2018-05-03T15:27:57.351Z,30.34
2018-05-03T15:30:24.814Z,30.42
2018-05-03T15:32:52.226Z,31.42
2018-05-03T15:35:19.649Z,30.93
2018-05-03T15:37:47.054Z,31.30
2018-05-03T15:40:14.483Z,29.71
2018-05-03T15:42:41.982Z,30.16
2018-05-03T15:45:09.372Z,31.19
2018-05-03T15:47:37.659Z,30.86
2018-05-03T15:50:05.139Z,31.82
2018-05-03T15:52:32.484Z,31.52
2018-05-03T15:54:59.872Z,31.88
2018-05-03T15:57:27.380Z,31.59
2018-05-03T15:59:54.831Z,32.07
2018-05-03T16:02:22.213Z,32.04
2018-05-03T16:04:49.603Z,32.27
2018-05-03T16:07:17.100Z,32.31
2018-05-03T16:09:44.519Z,32.64
2018-05-03T16:12:11.948Z,32.41
2018-05-03T16:14:39.411Z,32.23
2018-05-03T16:17:06.903Z,31.90
2018-05-03T16:19:34.301Z,31.88
2018-05-03T16:22:01.702Z,31.92
2018-05-03T16:24:29.127Z,31.67
2018-05-03T16:26:56.549Z,30.67
2018-05-03T16:29:23.938Z,30.18
2018-05-03T16:31:51.326Z,28.94
2018-05-03T16:34:18.760Z,28.31
2018-05-03T16:36:46.156Z,27.55
2018-05-03T16:39:13.616Z,27.06
2018-05-03T16:41:41.048Z,27.12
2018-05-03T16:44:08.427Z,26.57
2018-05-03T16:46:35.818Z,26.12
2018-05-03T16:49:03.216Z,25.43
2018-05-03T16:51:30.597Z,25.38
2018-05-03T16:53:58.015Z,25.48
2018-05-03T16:56:25.416Z,25.17
2018-05-03T16:58:52.838Z,25.45
2018-05-03T17:01:20.347Z,25.17
2018-05-03T17:03:47.796Z,24.98
2018-05-03T17:06:15.179Z,24.62
2018-05-03T17:08:42.700Z,24.72
2018-05-03T17:11:10.139Z,24.41
2018-05-03T17:13:37.612Z,24.50
2018-05-03T17:16:05.034Z,24.30
2018-05-03T17:18:32.453Z,23.92
2018-05-03T17:20:59.841Z,24.20
2018-05-03T17:23:28.493Z,23.94
2018-05-03T17:25:55.864Z,23.71
2018-05-03T17:28:23.356Z,23.68
2018-05-03T17:30:50.747Z,23.54
2018-05-03T17:33:18.138Z,23.56
2018-05-03T17:35:45.525Z,23.35
2018-05-03T17:38:12.899Z,23.10
2018-05-03T17:40:40.323Z,23.40
2018-05-03T17:43:07.865Z,23.08
2018-05-03T17:45:35.230Z,23.23
2018-05-03T17:48:02.612Z,23.18
2018-05-03T17:50:30.015Z,22.79
2018-05-03T17:52:57.388Z,22.73
2018-05-03T17:55:24.903Z,22.82
2018-05-03T17:57:59.931Z,22.68
2018-05-03T18:00:32.537Z,22.62
2018-05-03T18:03:00.114Z,22.51
2018-05-03T18:05:27.559Z,22.46
2018-05-03T18:07:54.960Z,22.48
2018-05-03T18:10:22.425Z,22.36
2018-05-03T18:12:49.919Z,22.47
2018-05-03T18:15:17.522Z,22.26
2018-05-03T18:17:44.903Z,22.36
2018-05-03T18:20:12.559Z,22.43
2018-05-03T18:22:39.939Z,22.24
2018-05-03T18:25:07.348Z,22.16
2018-05-03T18:27:34.720Z,21.92
2018-05-03T18:30:02.120Z,21.77
2018-05-03T18:32:29.499Z,21.56
2018-05-03T18:34:56.890Z,21.65
2018-05-03T18:37:24.346Z,21.68
2018-05-03T18:39:51.745Z,21.75
2018-05-03T18:42:19.407Z,21.75
2018-05-03T18:44:46.827Z,21.60
2018-05-03T18:47:14.352Z,21.57
2018-05-03T18:49:41.810Z,21.41
2018-05-03T18:52:09.796Z,21.47
2018-05-03T18:54:37.238Z,21.14
2018-05-03T18:57:04.846Z,21.17
2018-05-03T18:59:32.288Z,21.18
2018-05-03T19:01:59.714Z,21.17
2018-05-03T19:04:27.102Z,21.03
2018-05-03T19:06:54.485Z,21.10
2018-05-03T19:09:21.880Z,21.18
2018-05-03T19:11:49.307Z,20.98
2018-05-03T19:14:16.653Z,21.11
2018-05-03T19:16:44.064Z,21.00
2018-05-03T19:19:11.444Z,20.89
2018-05-03T19:21:38.846Z,20.81
2018-05-03T19:24:06.227Z,20.96
2018-05-03T19:26:33.649Z,20.73
2018-05-03T19:29:01.054Z,20.54
2018-05-03T19:31:28.549Z,20.51
2018-05-03T19:33:55.968Z,20.53
2018-05-03T19:36:23.410Z,20.46
2018-05-03T19:38:50.828Z,20.59
2018-05-03T19:41:18.223Z,20.55
2018-05-03T19:43:45.640Z,20.43
2018-05-03T19:46:13.133Z,20.04
2018-05-03T19:48:42.151Z,20.32
2018-05-03T19:51:09.543Z,20.28
2018-05-03T19:53:36.934Z,20.04
2018-05-03T19:56:04.332Z,19.87
2018-05-03T19:58:31.747Z,20.01
2018-05-03T20:00:59.152Z,19.95
2018-05-03T20:03:26.555Z,19.79
2018-05-03T20:05:53.974Z,19.84
2018-05-03T20:08:21.402Z,19.83
2018-05-03T20:10:48.789Z,20.07
2018-05-03T20:13:16.272Z,19.90
2018-05-03T20:15:43.669Z,19.72
2018-05-03T20:18:11.319Z,19.46
2018-05-03T20:20:38.742Z,19.67
2018-05-03T20:23:06.188Z,19.47
2018-05-03T20:25:33.670Z,19.52
2018-05-03T20:28:01.076Z,19.40
2018-05-03T20:30:28.555Z,19.30
2018-05-03T20:32:55.946Z,19.13
2018-05-03T20:35:23.344Z,18.97
2018-05-03T20:37:50.779Z,19.31
2018-05-03T20:40:18.186Z,19.17
2018-05-03T20:42:45.570Z,19.01
2018-05-03T20:45:12.947Z,19.02
2018-05-03T20:47:40.350Z,19.24
2018-05-03T20:50:07.741Z,19.25
2018-05-03T20:52:35.337Z,19.36
2018-05-03T20:55:02.825Z,19.24
2018-05-03T20:57:30.231Z,19.21
2018-05-03T20:59:57.838Z,18.92
2018-05-03T21:02:25.235Z,18.73
2018-05-03T21:04:52.658Z,18.90
2018-05-03T21:07:20.244Z,18.88
2018-05-03T21:09:47.644Z,18.52
2018-05-03T21:12:15.028Z,18.69
2018-05-03T21:14:42.411Z,18.67
2018-05-03T21:17:10.802Z,18.43
2018-05-03T21:19:38.205Z,18.30
2018-05-03T21:22:05.692Z,18.39
2018-05-03T21:24:33.131Z,18.52
2018-05-03T21:27:00.537Z,18.57
2018-05-03T21:42:22.958Z,18.16
2018-05-03T21:44:50.508Z,18.05
2018-05-03T21:47:17.923Z,18.21
2018-05-03T21:49:45.307Z,18.03
2018-05-03T21:52:13.273Z,17.99
2018-05-03T21:54:40.962Z,17.83
2018-05-03T21:57:08.356Z,17.88
2018-05-03T21:59:35.797Z,17.77
2018-05-03T22:02:03.196Z,17.76
2018-05-03T22:04:30.617Z,17.81
2018-05-03T22:06:58.136Z,17.63
2018-05-03T22:09:26.750Z,17.63
2018-05-03T22:11:54.170Z,17.76
2018-05-03T22:14:21.558Z,17.57
2018-05-03T22:16:49.221Z,17.53
2018-05-03T22:19:16.747Z,17.65
2018-05-03T22:21:44.347Z,17.31
2018-05-03T22:24:11.768Z,17.59
2018-05-03T22:26:39.457Z,17.63
2018-05-03T22:29:06.929Z,17.37
2018-05-03T22:31:34.450Z,17.04
2018-05-03T22:34:01.868Z,17.37
2018-05-03T22:36:29.251Z,17.38
2018-05-03T22:38:56.632Z,17.36
2018-05-03T22:41:24.099Z,17.35
2018-05-03T22:43:51.499Z,17.30
2018-05-03T22:46:18.936Z,17.29
2018-05-03T22:48:46.333Z,17.19
2018-05-03T22:51:13.710Z,17.34
2018-05-03T22:53:41.172Z,17.34
2018-05-03T22:56:08.543Z,17.28
2018-05-03T22:58:35.935Z,17.13
2018-05-03T23:01:03.325Z,17.06
2018-05-03T23:03:30.727Z,17.13
2018-05-03T23:05:58.138Z,17.19
2018-05-03T23:08:25.528Z,17.26
2018-05-03T23:10:52.917Z,17.17
2018-05-03T23:13:20.442Z,17.17
2018-05-03T23:15:47.925Z,17.24
2018-05-03T23:18:15.313Z,17.05
2018-05-03T23:20:42.789Z,17.08
2018-05-03T23:23:10.397Z,16.88
2018-05-03T23:25:37.839Z,16.75
2018-05-03T23:28:05.248Z,16.84
2018-05-03T23:30:32.620Z,16.85
2018-05-03T23:33:00.056Z,16.64
2018-05-03T23:35:27.440Z,16.79
2018-05-03T23:37:54.812Z,16.91
2018-05-03T23:40:22.186Z,16.80
2018-05-03T23:42:49.579Z,16.72
2018-05-03T23:45:16.964Z,16.76
2018-05-03T23:47:44.350Z,16.59
2018-05-03T23:50:11.813Z,16.51
2018-05-03T23:52:39.414Z,16.59
2018-05-03T23:55:06.800Z,16.45
2018-05-03T23:57:34.191Z,16.55
